sensor_id;sensor_type;location;lat;lon;timestamp;P1;durP1;ratioP1;P2;durP2;ratioP2
29934;SDS011;19905;53.370;-6.314;2024-02-23T00:00:06;4.10;;;1.50;;
29934;SDS011;19905;53.370;-6.314;2024-02-23T00:02:38;3.13;;;1.30;;
29934;SDS011;19905;53.370;-6.314;2024-02-23T00:05:08;3.47;;;1.42;;
29934;SDS011;19905;53.370;-6.314;2024-02-23T00:07:36;7.65;;;1.70;;
29934;SDS011;19905;53.370;-6.314;2024-02-23T00:10:05;3.42;;;1.25;;
29934;SDS011;19905;53.370;-6.314;2024-02-23T00:12:33;8.02;;;1.80;;
29934;SDS011;19905;53.370;-6.314;2024-02-23T00:15:04;3.05;;;1.38;;
29934;SDS011;19905;53.370;-6.314;2024-02-23T00:17:37;3.90;;;1.30;;
29934;SDS011;19905;53.370;-6.314;2024-02-23T00:20:09;6.07;;;1.52;;
29934;SDS011;19905;53.370;-6.314;2024-02-23T00:22:37;6.55;;;1.58;;
29934;SDS011;19905;53.370;-6.314;2024-02-23T00:25:06;6.13;;;1.90;;
29934;SDS011;19905;53.370;-6.314;2024-02-23T00:27:34;5.45;;;1.50;;
29934;SDS011;19905;53.370;-6.314;2024-02-23T00:30:05;2.30;;;1.30;;
29934;SDS011;19905;53.370;-6.314;2024-02-23T00:32:34;3.63;;;1.42;;
29934;SDS011;19905;53.370;-6.314;2024-02-23T00:35:04;4.10;;;1.30;;
29934;SDS011;19905;53.370;-6.314;2024-02-23T00:37:34;5.10;;;1.50;;
29934;SDS011;19905;53.370;-6.314;2024-02-23T00:40:04;4.93;;;1.60;;
29934;SDS011;19905;53.370;-6.314;2024-02-23T00:42:33;4.47;;;1.42;;
29934;SDS011;19905;53.370;-6.314;2024-02-23T00:45:03;5.80;;;1.58;;
29934;SDS011;19905;53.370;-6.314;2024-02-23T00:47:32;5.10;;;1.73;;
29934;SDS011;19905;53.370;-6.314;2024-02-23T00:50:02;3.97;;;1.30;;
29934;SDS011;19905;53.370;-6.314;2024-02-23T00:52:31;6.03;;;1.65;;
29934;SDS011;19905;53.370;-6.314;2024-02-23T00:55:00;3.80;;;1.02;;
29934;SDS011;19905;53.370;-6.314;2024-02-23T00:57:29;4.05;;;1.20;;
29934;SDS011;19905;53.370;-6.314;2024-02-23T00:59:58;3.45;;;1.30;;
29934;SDS011;19905;53.370;-6.314;2024-02-23T01:02:26;3.85;;;1.50;;
29934;SDS011;19905;53.370;-6.314;2024-02-23T01:04:58;6.57;;;2.10;;
29934;SDS011;19905;53.370;-6.314;2024-02-23T01:07:28;6.05;;;1.85;;
29934;SDS011;19905;53.370;-6.314;2024-02-23T01:10:00;6.00;;;1.80;;
29934;SDS011;19905;53.370;-6.314;2024-02-23T01:12:31;9.93;;;2.15;;
29934;SDS011;19905;53.370;-6.314;2024-02-23T01:14:59;8.63;;;2.10;;
29934;SDS011;19905;53.370;-6.314;2024-02-23T01:17:31;7.80;;;2.10;;
29934;SDS011;19905;53.370;-6.314;2024-02-23T01:20:01;5.38;;;1.80;;
29934;SDS011;19905;53.370;-6.314;2024-02-23T01:22:31;10.13;;;1.83;;
29934;SDS011;19905;53.370;-6.314;2024-02-23T01:24:59;9.52;;;2.13;;
29934;SDS011;19905;53.370;-6.314;2024-02-23T01:27:28;6.32;;;1.88;;
29934;SDS011;19905;53.370;-6.314;2024-02-23T01:29:56;11.73;;;2.38;;
29934;SDS011;19905;53.370;-6.314;2024-02-23T01:32:24;7.65;;;1.80;;
29934;SDS011;19905;53.370;-6.314;2024-02-23T01:34:54;6.18;;;1.90;;
29934;SDS011;19905;53.370;-6.314;2024-02-23T01:37:25;11.55;;;2.40;;
29934;SDS011;19905;53.370;-6.314;2024-02-23T01:39:53;3.83;;;1.70;;
29934;SDS011;19905;53.370;-6.314;2024-02-23T01:42:21;16.13;;;2.30;;
29934;SDS011;19905;53.370;-6.314;2024-02-23T01:44:50;11.18;;;1.88;;
29934;SDS011;19905;53.370;-6.314;2024-02-23T01:47:19;2.90;;;1.30;;
29934;SDS011;19905;53.370;-6.314;2024-02-23T01:49:48;10.80;;;1.77;;
29934;SDS011;19905;53.370;-6.314;2024-02-23T01:52:19;12.43;;;1.70;;
29934;SDS011;19905;53.370;-6.314;2024-02-23T01:54:50;12.18;;;2.30;;
29934;SDS011;19905;53.370;-6.314;2024-02-23T01:57:19;4.85;;;1.60;;
29934;SDS011;19905;53.370;-6.314;2024-02-23T02:00:09;9.93;;;1.90;;
29934;SDS011;19905;53.370;-6.314;2024-02-23T02:02:40;3.33;;;1.50;;
29934;SDS011;19905;53.370;-6.314;2024-02-23T02:05:09;8.15;;;1.52;;
29934;SDS011;19905;53.370;-6.314;2024-02-23T02:07:38;10.27;;;1.88;;
29934;SDS011;19905;53.370;-6.314;2024-02-23T02:10:09;7.22;;;1.63;;
29934;SDS011;19905;53.370;-6.314;2024-02-23T02:12:38;9.32;;;1.80;;
29934;SDS011;19905;53.370;-6.314;2024-02-23T02:15:08;7.70;;;1.58;;
29934;SDS011;19905;53.370;-6.314;2024-02-23T02:17:37;8.40;;;1.50;;
29934;SDS011;19905;53.370;-6.314;2024-02-23T02:20:07;7.93;;;1.40;;
29934;SDS011;19905;53.370;-6.314;2024-02-23T02:22:41;5.13;;;1.42;;
29934;SDS011;19905;53.370;-6.314;2024-02-23T02:25:13;9.13;;;1.48;;
29934;SDS011;19905;53.370;-6.314;2024-02-23T02:27:42;5.95;;;1.60;;
29934;SDS011;19905;53.370;-6.314;2024-02-23T02:30:12;6.05;;;1.40;;
29934;SDS011;19905;53.370;-6.314;2024-02-23T02:32:40;9.73;;;1.40;;
29934;SDS011;19905;53.370;-6.314;2024-02-23T02:35:10;5.97;;;1.48;;
29934;SDS011;19905;53.370;-6.314;2024-02-23T02:37:39;5.88;;;1.30;;
29934;SDS011;19905;53.370;-6.314;2024-02-23T02:40:08;8.57;;;1.45;;
29934;SDS011;19905;53.370;-6.314;2024-02-23T02:42:38;5.07;;;1.27;;
29934;SDS011;19905;53.370;-6.314;2024-02-23T02:45:07;7.35;;;1.40;;
29934;SDS011;19905;53.370;-6.314;2024-02-23T02:47:35;6.22;;;1.30;;
29934;SDS011;19905;53.370;-6.314;2024-02-23T02:50:05;8.48;;;1.10;;
29934;SDS011;19905;53.370;-6.314;2024-02-23T02:52:34;6.85;;;1.83;;
29934;SDS011;19905;53.370;-6.314;2024-02-23T02:55:03;5.28;;;0.88;;
29934;SDS011;19905;53.370;-6.314;2024-02-23T02:57:31;7.18;;;1.35;;
29934;SDS011;19905;53.370;-6.314;2024-02-23T03:00:02;9.85;;;1.15;;
29934;SDS011;19905;53.370;-6.314;2024-02-23T03:02:31;5.68;;;1.15;;
29934;SDS011;19905;53.370;-6.314;2024-02-23T03:05:00;6.35;;;1.13;;
29934;SDS011;19905;53.370;-6.314;2024-02-23T03:07:29;5.38;;;1.30;;
29934;SDS011;19905;53.370;-6.314;2024-02-23T03:09:57;5.95;;;1.10;;
29934;SDS011;19905;53.370;-6.314;2024-02-23T03:14:57;3.05;;;0.70;;
29934;SDS011;19905;53.370;-6.314;2024-02-23T03:17:28;6.93;;;1.08;;
29934;SDS011;19905;53.370;-6.314;2024-02-23T03:19:56;10.13;;;1.02;;
29934;SDS011;19905;53.370;-6.314;2024-02-23T03:22:25;4.30;;;1.00;;
29934;SDS011;19905;53.370;-6.314;2024-02-23T03:24:53;3.88;;;0.88;;
29934;SDS011;19905;53.370;-6.314;2024-02-23T03:27:26;3.22;;;0.70;;
29934;SDS011;19905;53.370;-6.314;2024-02-23T03:29:55;2.20;;;0.65;;
29934;SDS011;19905;53.370;-6.314;2024-02-23T03:32:23;1.58;;;0.60;;
29934;SDS011;19905;53.370;-6.314;2024-02-23T03:34:55;1.58;;;0.63;;
29934;SDS011;19905;53.370;-6.314;2024-02-23T03:37:23;1.95;;;0.55;;
29934;SDS011;19905;53.370;-6.314;2024-02-23T03:39:51;3.08;;;0.70;;
29934;SDS011;19905;53.370;-6.314;2024-02-23T03:42:20;1.65;;;0.50;;
29934;SDS011;19905;53.370;-6.314;2024-02-23T03:44:48;2.90;;;0.60;;
29934;SDS011;19905;53.370;-6.314;2024-02-23T03:47:17;2.72;;;0.68;;
29934;SDS011;19905;53.370;-6.314;2024-02-23T03:49:46;3.25;;;0.60;;
29934;SDS011;19905;53.370;-6.314;2024-02-23T03:52:17;2.25;;;0.60;;
29934;SDS011;19905;53.370;-6.314;2024-02-23T03:54:46;3.05;;;0.52;;
29934;SDS011;19905;53.370;-6.314;2024-02-23T03:57:14;2.25;;;0.50;;
29934;SDS011;19905;53.370;-6.314;2024-02-23T03:59:51;5.60;;;0.98;;
29934;SDS011;19905;53.370;-6.314;2024-02-23T04:02:19;2.80;;;0.60;;
29934;SDS011;19905;53.370;-6.314;2024-02-23T04:04:49;4.88;;;0.82;;
29934;SDS011;19905;53.370;-6.314;2024-02-23T04:07:19;3.40;;;0.70;;
29934;SDS011;19905;53.370;-6.314;2024-02-23T04:09:47;2.83;;;0.70;;
29934;SDS011;19905;53.370;-6.314;2024-02-23T04:12:19;3.15;;;0.73;;
29934;SDS011;19905;53.370;-6.314;2024-02-23T04:14:48;2.33;;;0.40;;
29934;SDS011;19905;53.370;-6.314;2024-02-23T04:17:17;2.88;;;0.60;;
29934;SDS011;19905;53.370;-6.314;2024-02-23T04:19:47;4.97;;;0.70;;
29934;SDS011;19905;53.370;-6.314;2024-02-23T04:22:15;1.50;;;0.63;;
29934;SDS011;19905;53.370;-6.314;2024-02-23T04:24:45;2.35;;;0.60;;
29934;SDS011;19905;53.370;-6.314;2024-02-23T04:27:13;2.92;;;0.80;;
29934;SDS011;19905;53.370;-6.314;2024-02-23T04:29:41;1.88;;;0.70;;
29934;SDS011;19905;53.370;-6.314;2024-02-23T04:32:10;1.98;;;0.60;;
29934;SDS011;19905;53.370;-6.314;2024-02-23T04:34:38;3.30;;;0.60;;
29934;SDS011;19905;53.370;-6.314;2024-02-23T04:37:08;6.18;;;0.60;;
29934;SDS011;19905;53.370;-6.314;2024-02-23T04:39:37;1.60;;;0.55;;
29934;SDS011;19905;53.370;-6.314;2024-02-23T04:42:10;4.97;;;0.88;;
29934;SDS011;19905;53.370;-6.314;2024-02-23T04:44:40;3.20;;;0.63;;
29934;SDS011;19905;53.370;-6.314;2024-02-23T04:47:10;5.38;;;0.60;;
29934;SDS011;19905;53.370;-6.314;2024-02-23T04:49:38;4.55;;;0.70;;
29934;SDS011;19905;53.370;-6.314;2024-02-23T04:52:07;1.33;;;0.45;;
29934;SDS011;19905;53.370;-6.314;2024-02-23T04:54:35;2.42;;;0.80;;
29934;SDS011;19905;53.370;-6.314;2024-02-23T04:57:04;2.85;;;0.47;;
29934;SDS011;19905;53.370;-6.314;2024-02-23T04:59:34;1.25;;;0.57;;
29934;SDS011;19905;53.370;-6.314;2024-02-23T05:02:02;5.50;;;0.70;;
29934;SDS011;19905;53.370;-6.314;2024-02-23T05:04:30;3.80;;;0.52;;
29934;SDS011;19905;53.370;-6.314;2024-02-23T05:07:00;1.70;;;0.43;;
29934;SDS011;19905;53.370;-6.314;2024-02-23T05:09:28;3.70;;;0.70;;
29934;SDS011;19905;53.370;-6.314;2024-02-23T05:11:58;2.60;;;0.55;;
29934;SDS011;19905;53.370;-6.314;2024-02-23T05:14:27;4.13;;;0.60;;
29934;SDS011;19905;53.370;-6.314;2024-02-23T05:16:57;1.10;;;0.43;;
29934;SDS011;19905;53.370;-6.314;2024-02-23T05:19:25;2.80;;;0.50;;
29934;SDS011;19905;53.370;-6.314;2024-02-23T05:21:54;1.70;;;0.45;;
29934;SDS011;19905;53.370;-6.314;2024-02-23T05:24:22;2.25;;;0.57;;
29934;SDS011;19905;53.370;-6.314;2024-02-23T05:26:50;2.42;;;0.65;;
29934;SDS011;19905;53.370;-6.314;2024-02-23T05:29:20;2.28;;;0.57;;
29934;SDS011;19905;53.370;-6.314;2024-02-23T05:31:50;5.18;;;0.52;;
29934;SDS011;19905;53.370;-6.314;2024-02-23T05:34:21;1.65;;;0.50;;
29934;SDS011;19905;53.370;-6.314;2024-02-23T05:36:50;2.33;;;0.70;;
29934;SDS011;19905;53.370;-6.314;2024-02-23T05:39:22;2.15;;;0.60;;
29934;SDS011;19905;53.370;-6.314;2024-02-23T05:41:57;3.75;;;0.80;;
29934;SDS011;19905;53.370;-6.314;2024-02-23T05:44:26;2.33;;;0.60;;
29934;SDS011;19905;53.370;-6.314;2024-02-23T05:46:55;3.83;;;0.60;;
29934;SDS011;19905;53.370;-6.314;2024-02-23T05:49:25;5.15;;;1.02;;
29934;SDS011;19905;53.370;-6.314;2024-02-23T05:51:57;5.63;;;0.80;;
29934;SDS011;19905;53.370;-6.314;2024-02-23T05:54:26;4.75;;;0.93;;
29934;SDS011;19905;53.370;-6.314;2024-02-23T05:56:54;3.00;;;0.70;;
29934;SDS011;19905;53.370;-6.314;2024-02-23T05:59:23;2.15;;;0.50;;
29934;SDS011;19905;53.370;-6.314;2024-02-23T06:01:51;3.45;;;0.65;;
29934;SDS011;19905;53.370;-6.314;2024-02-23T06:04:26;2.40;;;0.80;;
29934;SDS011;19905;53.370;-6.314;2024-02-23T06:06:57;6.50;;;0.77;;
29934;SDS011;19905;53.370;-6.314;2024-02-23T06:09:26;3.70;;;0.70;;
29934;SDS011;19905;53.370;-6.314;2024-02-23T06:11:54;3.00;;;0.50;;
29934;SDS011;19905;53.370;-6.314;2024-02-23T06:14:23;3.45;;;0.60;;
29934;SDS011;19905;53.370;-6.314;2024-02-23T06:16:51;8.85;;;0.93;;
29934;SDS011;19905;53.370;-6.314;2024-02-23T06:19:20;6.00;;;0.80;;
29934;SDS011;19905;53.370;-6.314;2024-02-23T06:21:50;3.15;;;0.88;;
29934;SDS011;19905;53.370;-6.314;2024-02-23T06:24:20;5.90;;;0.80;;
29934;SDS011;19905;53.370;-6.314;2024-02-23T06:26:49;3.25;;;0.63;;
29934;SDS011;19905;53.370;-6.314;2024-02-23T06:29:20;4.40;;;0.60;;
29934;SDS011;19905;53.370;-6.314;2024-02-23T06:31:48;3.88;;;0.85;;
29934;SDS011;19905;53.370;-6.314;2024-02-23T06:34:18;4.43;;;1.23;;
29934;SDS011;19905;53.370;-6.314;2024-02-23T06:36:47;3.97;;;0.90;;
29934;SDS011;19905;53.370;-6.314;2024-02-23T06:39:17;5.70;;;1.00;;
29934;SDS011;19905;53.370;-6.314;2024-02-23T06:41:46;4.45;;;0.77;;
29934;SDS011;19905;53.370;-6.314;2024-02-23T06:44:15;4.97;;;0.88;;
29934;SDS011;19905;53.370;-6.314;2024-02-23T06:46:43;4.00;;;0.80;;
29934;SDS011;19905;53.370;-6.314;2024-02-23T06:49:12;6.80;;;1.02;;
29934;SDS011;19905;53.370;-6.314;2024-02-23T06:51:40;3.45;;;0.88;;
29934;SDS011;19905;53.370;-6.314;2024-02-23T06:54:09;5.40;;;0.98;;
29934;SDS011;19905;53.370;-6.314;2024-02-23T06:56:39;5.00;;;0.98;;
29934;SDS011;19905;53.370;-6.314;2024-02-23T06:59:07;4.75;;;1.10;;
29934;SDS011;19905;53.370;-6.314;2024-02-23T07:01:36;6.15;;;0.80;;
29934;SDS011;19905;53.370;-6.314;2024-02-23T07:04:06;3.22;;;0.90;;
29934;SDS011;19905;53.370;-6.314;2024-02-23T07:06:34;7.85;;;1.20;;
29934;SDS011;19905;53.370;-6.314;2024-02-23T07:09:05;3.40;;;1.02;;
29934;SDS011;19905;53.370;-6.314;2024-02-23T07:11:33;9.32;;;1.40;;
29934;SDS011;19905;53.370;-6.314;2024-02-23T07:14:03;8.80;;;1.15;;
29934;SDS011;19905;53.370;-6.314;2024-02-23T07:16:32;7.13;;;1.30;;
29934;SDS011;19905;53.370;-6.314;2024-02-23T07:19:00;4.32;;;1.20;;
29934;SDS011;19905;53.370;-6.314;2024-02-23T07:21:28;5.22;;;1.10;;
29934;SDS011;19905;53.370;-6.314;2024-02-23T07:23:57;4.65;;;1.00;;
29934;SDS011;19905;53.370;-6.314;2024-02-23T07:26:25;5.57;;;0.82;;
29934;SDS011;19905;53.370;-6.314;2024-02-23T07:28:55;4.32;;;0.98;;
29934;SDS011;19905;53.370;-6.314;2024-02-23T07:31:25;3.78;;;0.82;;
29934;SDS011;19905;53.370;-6.314;2024-02-23T07:33:53;5.07;;;0.90;;
29934;SDS011;19905;53.370;-6.314;2024-02-23T07:36:22;6.95;;;1.00;;
29934;SDS011;19905;53.370;-6.314;2024-02-23T07:38:50;5.10;;;0.70;;
29934;SDS011;19905;53.370;-6.314;2024-02-23T07:41:18;6.20;;;0.90;;
29934;SDS011;19905;53.370;-6.314;2024-02-23T07:43:47;9.98;;;1.00;;
29934;SDS011;19905;53.370;-6.314;2024-02-23T07:46:16;3.80;;;0.85;;
29934;SDS011;19905;53.370;-6.314;2024-02-23T07:48:45;4.82;;;1.00;;
29934;SDS011;19905;53.370;-6.314;2024-02-23T07:51:15;7.55;;;1.10;;
29934;SDS011;19905;53.370;-6.314;2024-02-23T07:53:43;4.65;;;1.02;;
29934;SDS011;19905;53.370;-6.314;2024-02-23T07:56:11;8.68;;;0.98;;
29934;SDS011;19905;53.370;-6.314;2024-02-23T07:58:39;6.47;;;1.08;;
29934;SDS011;19905;53.370;-6.314;2024-02-23T08:01:08;5.90;;;0.88;;
29934;SDS011;19905;53.370;-6.314;2024-02-23T08:03:36;3.42;;;0.90;;
29934;SDS011;19905;53.370;-6.314;2024-02-23T08:06:09;6.25;;;1.20;;
29934;SDS011;19905;53.370;-6.314;2024-02-23T08:08:37;2.88;;;0.80;;
29934;SDS011;19905;53.370;-6.314;2024-02-23T08:11:05;4.90;;;1.00;;
29934;SDS011;19905;53.370;-6.314;2024-02-23T08:13:34;2.38;;;0.90;;
29934;SDS011;19905;53.370;-6.314;2024-02-23T08:16:02;2.35;;;0.98;;
29934;SDS011;19905;53.370;-6.314;2024-02-23T08:18:30;7.38;;;0.95;;
29934;SDS011;19905;53.370;-6.314;2024-02-23T08:20:59;4.72;;;0.80;;
29934;SDS011;19905;53.370;-6.314;2024-02-23T08:23:31;6.50;;;1.00;;
29934;SDS011;19905;53.370;-6.314;2024-02-23T08:25:59;3.40;;;0.73;;
29934;SDS011;19905;53.370;-6.314;2024-02-23T08:28:28;6.18;;;0.95;;
29934;SDS011;19905;53.370;-6.314;2024-02-23T08:30:56;5.97;;;1.25;;
29934;SDS011;19905;53.370;-6.314;2024-02-23T08:33:25;4.78;;;1.08;;
29934;SDS011;19905;53.370;-6.314;2024-02-23T08:35:53;3.60;;;0.90;;
29934;SDS011;19905;53.370;-6.314;2024-02-23T08:38:21;4.57;;;1.00;;
29934;SDS011;19905;53.370;-6.314;2024-02-23T08:40:51;4.25;;;0.85;;
29934;SDS011;19905;53.370;-6.314;2024-02-23T08:43:19;2.95;;;0.90;;
29934;SDS011;19905;53.370;-6.314;2024-02-23T08:45:49;6.35;;;1.20;;
29934;SDS011;19905;53.370;-6.314;2024-02-23T08:48:19;4.95;;;0.90;;
29934;SDS011;19905;53.370;-6.314;2024-02-23T08:50:47;7.53;;;0.93;;
29934;SDS011;19905;53.370;-6.314;2024-02-23T08:53:15;3.70;;;1.00;;
29934;SDS011;19905;53.370;-6.314;2024-02-23T08:55:44;5.57;;;1.10;;
29934;SDS011;19905;53.370;-6.314;2024-02-23T08:58:14;4.25;;;1.38;;
29934;SDS011;19905;53.370;-6.314;2024-02-23T09:00:42;6.90;;;1.15;;
29934;SDS011;19905;53.370;-6.314;2024-02-23T09:03:11;6.97;;;1.40;;
29934;SDS011;19905;53.370;-6.314;2024-02-23T09:05:39;6.47;;;1.27;;
29934;SDS011;19905;53.370;-6.314;2024-02-23T09:08:07;3.00;;;0.95;;
29934;SDS011;19905;53.370;-6.314;2024-02-23T09:10:36;6.38;;;1.40;;
29934;SDS011;19905;53.370;-6.314;2024-02-23T09:13:04;3.67;;;1.00;;
29934;SDS011;19905;53.370;-6.314;2024-02-23T09:15:34;4.40;;;0.80;;
29934;SDS011;19905;53.370;-6.314;2024-02-23T09:18:02;5.88;;;1.23;;
29934;SDS011;19905;53.370;-6.314;2024-02-23T09:20:30;6.57;;;1.17;;
29934;SDS011;19905;53.370;-6.314;2024-02-23T09:22:59;7.05;;;1.10;;
29934;SDS011;19905;53.370;-6.314;2024-02-23T09:25:27;6.25;;;0.93;;
29934;SDS011;19905;53.370;-6.314;2024-02-23T09:27:56;3.97;;;0.93;;
29934;SDS011;19905;53.370;-6.314;2024-02-23T09:30:24;3.47;;;0.95;;
29934;SDS011;19905;53.370;-6.314;2024-02-23T09:32:54;5.65;;;0.88;;
29934;SDS011;19905;53.370;-6.314;2024-02-23T09:35:26;4.63;;;0.95;;
29934;SDS011;19905;53.370;-6.314;2024-02-23T09:37:55;2.50;;;0.90;;
29934;SDS011;19905;53.370;-6.314;2024-02-23T09:40:23;5.15;;;1.10;;
29934;SDS011;19905;53.370;-6.314;2024-02-23T09:42:53;3.22;;;0.80;;
29934;SDS011;19905;53.370;-6.314;2024-02-23T09:45:24;4.13;;;0.90;;
29934;SDS011;19905;53.370;-6.314;2024-02-23T09:47:55;6.90;;;0.80;;
29934;SDS011;19905;53.370;-6.314;2024-02-23T09:50:24;1.65;;;0.93;;
29934;SDS011;19905;53.370;-6.314;2024-02-23T09:52:53;4.55;;;0.95;;
29934;SDS011;19905;53.370;-6.314;2024-02-23T09:55:21;3.00;;;0.80;;
29934;SDS011;19905;53.370;-6.314;2024-02-23T09:57:51;4.43;;;1.00;;
29934;SDS011;19905;53.370;-6.314;2024-02-23T10:00:23;2.47;;;0.93;;
29934;SDS011;19905;53.370;-6.314;2024-02-23T10:02:52;6.78;;;1.00;;
29934;SDS011;19905;53.370;-6.314;2024-02-23T10:05:25;4.10;;;0.80;;
29934;SDS011;19905;53.370;-6.314;2024-02-23T10:08:03;2.25;;;0.82;;
29934;SDS011;19905;53.370;-6.314;2024-02-23T10:13:01;4.25;;;0.90;;
29934;SDS011;19905;53.370;-6.314;2024-02-23T10:15:31;1.73;;;0.80;;
29934;SDS011;19905;53.370;-6.314;2024-02-23T10:17:59;2.30;;;0.90;;
29934;SDS011;19905;53.370;-6.314;2024-02-23T10:20:29;3.25;;;0.70;;
29934;SDS011;19905;53.370;-6.314;2024-02-23T10:22:57;4.28;;;0.80;;
29934;SDS011;19905;53.370;-6.314;2024-02-23T10:25:25;2.10;;;0.80;;
29934;SDS011;19905;53.370;-6.314;2024-02-23T10:27:54;4.47;;;0.88;;
29934;SDS011;19905;53.370;-6.314;2024-02-23T10:30:22;5.35;;;1.10;;
29934;SDS011;19905;53.370;-6.314;2024-02-23T10:32:51;5.43;;;0.80;;
29934;SDS011;19905;53.370;-6.314;2024-02-23T10:35:21;3.05;;;0.77;;
29934;SDS011;19905;53.370;-6.314;2024-02-23T10:37:52;3.88;;;0.90;;
29934;SDS011;19905;53.370;-6.314;2024-02-23T10:40:21;4.10;;;1.10;;
29934;SDS011;19905;53.370;-6.314;2024-02-23T10:42:50;4.78;;;1.30;;
29934;SDS011;19905;53.370;-6.314;2024-02-23T10:45:20;5.15;;;0.95;;
29934;SDS011;19905;53.370;-6.314;2024-02-23T10:47:49;4.43;;;0.90;;
29934;SDS011;19905;53.370;-6.314;2024-02-23T10:50:19;3.58;;;1.05;;
29934;SDS011;19905;53.370;-6.314;2024-02-23T10:52:47;6.43;;;1.13;;
29934;SDS011;19905;53.370;-6.314;2024-02-23T10:55:17;3.85;;;1.00;;
29934;SDS011;19905;53.370;-6.314;2024-02-23T10:57:46;5.90;;;1.50;;
29934;SDS011;19905;53.370;-6.314;2024-02-23T11:00:16;2.22;;;1.10;;
29934;SDS011;19905;53.370;-6.314;2024-02-23T11:02:46;4.90;;;1.13;;
29934;SDS011;19905;53.370;-6.314;2024-02-23T11:05:16;4.55;;;1.33;;
29934;SDS011;19905;53.370;-6.314;2024-02-23T11:07:46;5.82;;;1.00;;
29934;SDS011;19905;53.370;-6.314;2024-02-23T11:10:17;4.70;;;1.42;;
29934;SDS011;19905;53.370;-6.314;2024-02-23T11:12:56;6.60;;;1.10;;
29934;SDS011;19905;53.370;-6.314;2024-02-23T11:15:28;4.93;;;1.00;;
29934;SDS011;19905;53.370;-6.314;2024-02-23T11:17:57;8.02;;;1.38;;
29934;SDS011;19905;53.370;-6.314;2024-02-23T11:20:33;4.47;;;1.00;;
29934;SDS011;19905;53.370;-6.314;2024-02-23T11:23:12;4.25;;;1.00;;
29934;SDS011;19905;53.370;-6.314;2024-02-23T11:25:42;2.60;;;1.10;;
29934;SDS011;19905;53.370;-6.314;2024-02-23T11:28:21;6.57;;;1.40;;
29934;SDS011;19905;53.370;-6.314;2024-02-23T11:30:49;4.65;;;1.15;;
29934;SDS011;19905;53.370;-6.314;2024-02-23T11:33:25;4.28;;;0.93;;
29934;SDS011;19905;53.370;-6.314;2024-02-23T11:36:04;3.83;;;0.90;;
29934;SDS011;19905;53.370;-6.314;2024-02-23T11:38:32;3.22;;;1.08;;
29934;SDS011;19905;53.370;-6.314;2024-02-23T11:41:03;6.05;;;1.20;;
29934;SDS011;19905;53.370;-6.314;2024-02-23T11:43:32;9.25;;;1.48;;
29934;SDS011;19905;53.370;-6.314;2024-02-23T11:46:03;4.10;;;1.10;;
29934;SDS011;19905;53.370;-6.314;2024-02-23T11:48:31;4.07;;;1.10;;
29934;SDS011;19905;53.370;-6.314;2024-02-23T11:50:59;4.57;;;1.20;;
29934;SDS011;19905;53.370;-6.314;2024-02-23T11:53:27;5.78;;;1.17;;
29934;SDS011;19905;53.370;-6.314;2024-02-23T11:55:56;4.15;;;1.10;;
29934;SDS011;19905;53.370;-6.314;2024-02-23T11:58:27;4.72;;;1.10;;
29934;SDS011;19905;53.370;-6.314;2024-02-23T12:00:55;9.02;;;1.27;;
29934;SDS011;19905;53.370;-6.314;2024-02-23T12:03:26;5.85;;;1.38;;
29934;SDS011;19905;53.370;-6.314;2024-02-23T12:05:55;8.40;;;1.83;;
29934;SDS011;19905;53.370;-6.314;2024-02-23T12:08:24;4.85;;;1.30;;
29934;SDS011;19905;53.370;-6.314;2024-02-23T12:10:53;3.78;;;1.50;;
29934;SDS011;19905;53.370;-6.314;2024-02-23T12:13:22;5.35;;;1.48;;
29934;SDS011;19905;53.370;-6.314;2024-02-23T12:15:53;7.40;;;1.50;;
29934;SDS011;19905;53.370;-6.314;2024-02-23T12:18:21;4.28;;;1.30;;
29934;SDS011;19905;53.370;-6.314;2024-02-23T12:20:53;5.22;;;1.38;;
29934;SDS011;19905;53.370;-6.314;2024-02-23T12:23:21;4.95;;;1.20;;
29934;SDS011;19905;53.370;-6.314;2024-02-23T12:25:53;17.25;;;1.48;;
29934;SDS011;19905;53.370;-6.314;2024-02-23T12:28:22;2.78;;;0.80;;
29934;SDS011;19905;53.370;-6.314;2024-02-23T12:30:59;8.02;;;1.15;;
29934;SDS011;19905;53.370;-6.314;2024-02-23T12:33:28;4.22;;;1.10;;
29934;SDS011;19905;53.370;-6.314;2024-02-23T12:35:58;5.82;;;1.20;;
29934;SDS011;19905;53.370;-6.314;2024-02-23T12:38:26;6.82;;;1.33;;
29934;SDS011;19905;53.370;-6.314;2024-02-23T12:40:55;3.65;;;1.50;;
29934;SDS011;19905;53.370;-6.314;2024-02-23T12:43:23;6.95;;;1.70;;
29934;SDS011;19905;53.370;-6.314;2024-02-23T12:45:52;7.65;;;1.30;;
29934;SDS011;19905;53.370;-6.314;2024-02-23T12:48:22;3.97;;;1.20;;
29934;SDS011;19905;53.370;-6.314;2024-02-23T12:50:51;5.35;;;1.30;;
29934;SDS011;19905;53.370;-6.314;2024-02-23T12:53:30;4.35;;;1.30;;
29934;SDS011;19905;53.370;-6.314;2024-02-23T12:56:01;5.25;;;0.93;;
29934;SDS011;19905;53.370;-6.314;2024-02-23T12:58:30;5.65;;;1.00;;
29934;SDS011;19905;53.370;-6.314;2024-02-23T13:00:58;4.07;;;1.10;;
29934;SDS011;19905;53.370;-6.314;2024-02-23T13:03:28;3.40;;;1.05;;
29934;SDS011;19905;53.370;-6.314;2024-02-23T13:05:57;6.15;;;0.90;;
29934;SDS011;19905;53.370;-6.314;2024-02-23T13:08:25;2.22;;;0.70;;
29934;SDS011;19905;53.370;-6.314;2024-02-23T13:10:54;2.70;;;1.08;;
29934;SDS011;19905;53.370;-6.314;2024-02-23T13:13:23;7.05;;;1.10;;
29934;SDS011;19905;53.370;-6.314;2024-02-23T13:15:52;2.47;;;0.88;;
29934;SDS011;19905;53.370;-6.314;2024-02-23T13:18:21;3.38;;;1.00;;
29934;SDS011;19905;53.370;-6.314;2024-02-23T13:20:54;3.80;;;1.30;;
29934;SDS011;19905;53.370;-6.314;2024-02-23T13:23:23;3.75;;;1.02;;
29934;SDS011;19905;53.370;-6.314;2024-02-23T13:25:51;2.55;;;1.30;;
29934;SDS011;19905;53.370;-6.314;2024-02-23T13:28:20;5.20;;;1.20;;
29934;SDS011;19905;53.370;-6.314;2024-02-23T13:30:48;2.72;;;1.00;;
29934;SDS011;19905;53.370;-6.314;2024-02-23T13:33:16;5.30;;;1.10;;
29934;SDS011;19905;53.370;-6.314;2024-02-23T13:35:47;2.83;;;0.95;;
29934;SDS011;19905;53.370;-6.314;2024-02-23T13:38:17;6.57;;;1.10;;
29934;SDS011;19905;53.370;-6.314;2024-02-23T13:40:46;5.88;;;1.15;;
29934;SDS011;19905;53.370;-6.314;2024-02-23T13:43:15;3.97;;;1.10;;
29934;SDS011;19905;53.370;-6.314;2024-02-23T13:45:48;2.67;;;1.10;;
29934;SDS011;19905;53.370;-6.314;2024-02-23T13:48:16;2.13;;;1.10;;
29934;SDS011;19905;53.370;-6.314;2024-02-23T13:50:46;5.22;;;1.30;;
29934;SDS011;19905;53.370;-6.314;2024-02-23T13:53:14;2.38;;;1.30;;
29934;SDS011;19905;53.370;-6.314;2024-02-23T13:55:44;3.97;;;1.00;;
29934;SDS011;19905;53.370;-6.314;2024-02-23T13:58:12;4.00;;;0.70;;
29934;SDS011;19905;53.370;-6.314;2024-02-23T14:00:41;2.00;;;0.75;;
29934;SDS011;19905;53.370;-6.314;2024-02-23T14:03:10;5.18;;;1.30;;
29934;SDS011;19905;53.370;-6.314;2024-02-23T14:05:45;7.10;;;1.13;;
29934;SDS011;19905;53.370;-6.314;2024-02-23T14:08:14;3.90;;;1.38;;
29934;SDS011;19905;53.370;-6.314;2024-02-23T14:10:44;6.47;;;1.30;;
29934;SDS011;19905;53.370;-6.314;2024-02-23T14:13:12;2.40;;;0.85;;
29934;SDS011;19905;53.370;-6.314;2024-02-23T14:15:41;2.42;;;0.88;;
29934;SDS011;19905;53.370;-6.314;2024-02-23T14:18:10;2.05;;;0.70;;
29934;SDS011;19905;53.370;-6.314;2024-02-23T14:20:38;3.00;;;1.02;;
29934;SDS011;19905;53.370;-6.314;2024-02-23T14:23:07;4.13;;;1.02;;
29934;SDS011;19905;53.370;-6.314;2024-02-23T14:25:35;3.25;;;1.23;;
29934;SDS011;19905;53.370;-6.314;2024-02-23T14:28:05;3.55;;;1.30;;
29934;SDS011;19905;53.370;-6.314;2024-02-23T14:30:35;3.83;;;0.82;;
29934;SDS011;19905;53.370;-6.314;2024-02-23T14:33:04;6.75;;;1.45;;
29934;SDS011;19905;53.370;-6.314;2024-02-23T14:35:33;2.72;;;0.75;;
29934;SDS011;19905;53.370;-6.314;2024-02-23T14:38:01;1.75;;;0.68;;
29934;SDS011;19905;53.370;-6.314;2024-02-23T14:40:30;3.40;;;0.90;;
29934;SDS011;19905;53.370;-6.314;2024-02-23T14:42:58;1.50;;;0.60;;
29934;SDS011;19905;53.370;-6.314;2024-02-23T14:45:28;3.22;;;0.77;;
29934;SDS011;19905;53.370;-6.314;2024-02-23T14:47:56;6.20;;;0.80;;
29934;SDS011;19905;53.370;-6.314;2024-02-23T14:50:26;4.80;;;1.23;;